Time;durP1;ratioP1;P1;durP2;ratioP2;P2;SDS_P1;SDS_P2;PMS_P1;PMS_P2;Temp;Humidity;BMP_temperature;BMP_pressure;BME280_temperature;BME280_humidity;BME280_pressure;Samples;Min_cycle;Max_cycle;Signal;HPM_P1;HPM_P2
2020/12/01 13:12:27;;;;;;;23.23;11.70;;;3.10;99.90;;;;;;5153202;27;20800;-75
2020/12/01 13:14:53;;;;;;;21.42;13.00;;;3.10;99.90;;;;;;5130514;27;20027;-77
2020/12/01 13:17:19;;;;;;;19.35;11.02;;;3.20;99.90;;;;;;5129375;27;20023;-77
2020/12/01 13:19:45;;;;;;;19.95;11.70;;;3.20;99.90;;;;;;5128639;27;20102;-76
2020/12/01 13:22:10;;;;;;;19.45;11.85;;;3.30;99.90;;;;;;5146169;27;20019;-76
2020/12/01 13:24:36;;;;;;;16.05;10.80;;;3.30;99.90;;;;;;5145673;27;20023;-75
2020/12/01 13:27:02;;;;;;;17.58;10.73;;;3.40;99.90;;;;;;5146996;27;20030;-75
2020/12/01 13:29:27;;;;;;;20.60;9.55;;;3.30;99.90;;;;;;5148702;27;20023;-77
2020/12/01 13:31:53;;;;;;;15.75;10.38;;;3.30;99.90;;;;;;5147018;27;20023;-76
2020/12/01 13:34:19;;;;;;;18.60;11.25;;;4.90;99.90;;;;;;5147354;27;20026;-76
2020/12/01 13:36:44;;;;;;;12.88;9.55;;;4.90;99.90;;;;;;5147413;27;20712;-78
2020/12/01 13:39:10;;;;;;;16.15;10.68;;;3.40;99.90;;;;;;5147395;27;20069;-77
2020/12/01 13:41:36;;;;;;;15.70;9.98;;;3.30;99.90;;;;;;5147035;27;20052;-78
2020/12/01 13:44:02;;;;;;;14.70;9.40;;;4.90;99.90;;;;;;5144617;27;20042;-77
2020/12/01 13:46:28;;;;;;;15.15;9.18;;;3.40;99.90;;;;;;5127259;27;20024;-78
2020/12/01 13:48:54;;;;;;;12.77;7.80;;;3.40;99.90;;;;;;5128601;27;20548;-77
2020/12/01 13:51:19;;;;;;;16.80;9.38;;;3.50;99.90;;;;;;5127871;27;20039;-78
2020/12/01 13:53:45;;;;;;;16.08;9.60;;;3.30;99.90;;;;;;5128225;28;20020;-78
2020/12/01 13:56:11;;;;;;;14.45;9.80;;;3.40;99.90;;;;;;5128682;28;20240;-77
2020/12/01 13:58:37;;;;;;;9.82;5.68;;;3.60;99.90;;;;;;5126635;28;20097;-77
2020/12/01 14:01:03;;;;;;;14.68;9.52;;;3.60;99.90;;;;;;5126450;28;20031;-76
2020/12/01 14:03:28;;;;;;;17.08;9.65;;;4.70;99.90;;;;;;5126404;28;20019;-77
2020/12/01 14:05:54;;;;;;;16.08;8.85;;;3.50;99.90;;;;;;5126399;28;20077;-78
2020/12/01 14:08:19;;;;;;;13.75;8.57;;;3.70;99.90;;;;;;5127480;28;20031;-77
2020/12/01 14:10:46;;;;;;;11.75;7.78;;;3.30;99.90;;;;;;5127534;28;20047;-76
2020/12/01 14:13:11;;;;;;;10.63;6.28;;;3.40;99.90;;;;;;5126358;27;20107;-76
2020/12/01 14:15:37;;;;;;;13.93;8.50;;;3.40;99.90;;;;;;5145104;27;20113;-77
2020/12/01 14:18:04;;;;;;;15.95;9.57;;;3.50;99.90;;;;;;5145228;27;20019;-77
2020/12/01 14:20:29;;;;;;;16.90;8.88;;;3.40;99.90;;;;;;5145366;27;20027;-76
2020/12/01 14:22:56;;;;;;;12.85;7.18;;;3.40;99.90;;;;;;5137799;27;20512;-76
2020/12/01 14:25:22;;;;;;;14.55;9.98;;;3.20;99.90;;;;;;5130379;27;20039;-76
2020/12/01 14:27:48;;;;;;;17.15;9.85;;;3.40;99.90;;;;;;5131098;27;20034;-76
2020/12/01 14:30:17;;;;;;;16.30;9.18;;;3.30;99.90;;;;;;5131686;27;20023;-76
2020/12/01 14:32:43;;;;;;;15.00;8.82;;;3.30;99.90;;;;;;5129205;27;20028;-75
2020/12/01 14:35:13;;;;;;;17.05;9.65;;;3.50;99.90;;;;;;5130890;27;20046;-75
2020/12/01 14:37:38;;;;;;;13.80;8.98;;;3.60;99.90;;;;;;5131016;27;20106;-76
2020/12/01 14:40:05;;;;;;;14.40;8.82;;;3.50;99.90;;;;;;5129446;27;20168;-75
2020/12/01 14:42:30;;;;;;;14.68;8.35;;;3.20;99.90;;;;;;5129694;27;20027;-76
2020/12/01 14:44:56;;;;;;;14.13;8.55;;;3.40;99.90;;;;;;5130784;27;20035;-75
2020/12/01 14:47:49;;;;;;;14.32;8.52;;;3.40;99.90;;;;;;5130196;27;20027;-76
2020/12/01 14:50:25;;;;;;;13.75;8.93;;;3.40;99.90;;;;;;5131013;27;20028;-75
2020/12/01 14:52:54;;;;;;;16.15;8.80;;;3.50;99.90;;;;;;5130858;27;20028;-75
2020/12/01 14:55:44;;;;;;;13.60;7.70;;;4.00;99.90;;;;;;5130984;27;20038;-76
2020/12/01 14:58:25;;;;;;;12.85;8.13;;;3.50;99.90;;;;;;5129429;27;20023;-76
2020/12/01 15:01:04;;;;;;;14.48;9.02;;;3.50;99.90;;;;;;5131353;27;20144;-74
2020/12/01 15:03:57;;;;;;;15.88;7.75;;;3.50;99.90;;;;;;5130894;27;20034;-76
2020/12/01 15:06:44;;;;;;;14.45;9.27;;;3.30;99.90;;;;;;5112727;27;20027;-76
2020/12/01 15:09:40;;;;;;;13.13;8.40;;;3.40;99.90;;;;;;5131314;27;20026;-76
2020/12/01 15:12:36;;;;;;;14.27;9.25;;;3.40;99.90;;;;;;5133355;27;20031;-76
2020/12/01 15:15:30;;;;;;;12.43;7.55;;;5.70;99.90;;;;;;5145936;27;20046;-75
2020/12/01 15:17:58;;;;;;;;;;;3.60;99.90;;;;;;5150975;27;20026;-76
2020/12/01 15:20:26;;;;;;;12.13;8.55;;;3.40;99.90;;;;;;5151202;27;19938;-75
2020/12/01 15:23:03;;;;;;;10.70;8.02;;;3.50;99.90;;;;;;5151241;27;20038;-76
2020/12/01 15:25:30;;;;;;;13.45;8.50;;;3.40;99.90;;;;;;5151214;27;20026;-76
2020/12/01 15:28:03;;;;;;;13.32;8.38;;;3.40;99.90;;;;;;5150047;27;20023;-76
2020/12/01 15:30:29;;;;;;;11.43;8.13;;;3.50;99.90;;;;;;5150900;27;20387;-75
2020/12/01 15:32:56;;;;;;;12.57;8.25;;;5.20;99.90;;;;;;5150956;27;20027;-75
2020/12/01 15:35:36;;;;;;;13.45;9.82;;;6.10;99.90;;;;;;5149099;27;20022;-76
2020/12/01 15:38:14;;;;;;;13.13;8.23;;;3.70;99.90;;;;;;5150540;27;20066;-76
2020/12/01 15:40:45;;;;;;;11.38;7.45;;;3.60;99.90;;;;;;5149926;27;20023;-76
2020/12/01 15:43:34;;;;;;;11.88;7.97;;;3.60;99.90;;;;;;5150241;27;20030;-76
2020/12/01 15:46:09;;;;;;;13.63;7.80;;;3.60;99.90;;;;;;5107174;28;20407;-75
2020/12/01 15:48:34;;;;;;;11.38;7.57;;;3.70;99.90;;;;;;5109989;28;20102;-75
2020/12/01 15:51:31;;;;;;;13.23;7.78;;;3.60;99.90;;;;;;5108767;28;20126;-75
2020/12/01 15:54:37;;;;;;;11.57;7.15;;;3.50;99.90;;;;;;5109586;28;20418;-75
2020/12/01 15:57:29;;;;;;;11.00;7.60;;;3.60;99.90;;;;;;5108679;28;20012;-76
2020/12/01 16:00:21;;;;;;;14.80;8.27;;;3.50;99.90;;;;;;5108595;28;20020;-76
2020/12/01 16:03:12;;;;;;;11.65;7.75;;;3.50;99.90;;;;;;5109115;28;20028;-74
2020/12/01 16:05:52;;;;;;;13.55;8.32;;;3.40;99.90;;;;;;5107823;28;20530;-74
2020/12/01 16:08:42;;;;;;;15.35;8.65;;;3.40;99.90;;;;;;5107965;28;20027;-75
2020/12/01 16:11:31;;;;;;;14.00;8.52;;;3.50;99.90;;;;;;5109052;28;20028;-75
2020/12/01 16:14:21;;;;;;;13.00;7.82;;;3.40;99.90;;;;;;5113388;27;20439;-74
2020/12/01 16:16:57;;;;;;;14.27;8.73;;;5.20;99.90;;;;;;5128136;27;20096;-74
2020/12/01 16:19:37;;;;;;;15.32;9.90;;;3.40;99.90;;;;;;5127533;27;20620;-75
2020/12/01 16:22:04;;;;;;;13.60;8.95;;;3.40;99.90;;;;;;5128436;27;20396;-76
2020/12/01 16:24:36;;;;;;;11.90;7.90;;;3.40;99.90;;;;;;5128917;27;20031;-76
2020/12/01 16:27:22;;;;;;;16.30;9.55;;;3.50;99.90;;;;;;5128355;27;20368;-76
2020/12/01 16:30:04;;;;;;;14.20;8.60;;;3.40;99.90;;;;;;5128765;27;20156;-76
2020/12/01 16:32:32;;;;;;;12.63;9.45;;;3.40;99.90;;;;;;5128704;27;20173;-75
2020/12/01 16:35:02;;;;;;;14.32;9.68;;;5.90;99.90;;;;;;5128731;27;20015;-76
2020/12/01 16:37:37;;;;;;;15.30;9.45;;;3.50;99.90;;;;;;5132358;27;20071;-76
2020/12/01 16:40:25;;;;;;;14.07;9.13;;;4.80;99.90;;;;;;5149863;27;20505;-75
2020/12/01 16:43:00;;;;;;;15.52;9.93;;;3.60;99.90;;;;;;5149317;27;20054;-75
2020/12/01 16:45:46;;;;;;;13.35;8.80;;;3.50;99.90;;;;;;5114853;27;20031;-75
2020/12/01 16:48:35;;;;;;;12.98;8.48;;;3.50;99.90;;;;;;5107601;28;20024;-76
2020/12/01 16:51:23;;;;;;;12.60;8.90;;;3.50;99.90;;;;;;5108673;28;20028;-78
2020/12/01 16:54:22;;;;;;;12.45;8.98;;;3.40;99.90;;;;;;5107744;28;20372;-76
2020/12/01 16:56:56;;;;;;;15.95;11.27;;;3.50;99.90;;;;;;5108012;28;20023;-75
2020/12/01 16:59:40;;;;;;;15.93;12.65;;;3.50;99.90;;;;;;5123379;27;20108;-74
2020/12/01 17:02:27;;;;;;;17.63;12.52;;;3.60;99.90;;;;;;5129127;27;20043;-77
2020/12/01 17:05:13;;;;;;;20.33;13.05;;;3.60;99.90;;;;;;5126782;27;20401;-76
2020/12/01 17:07:40;;;;;;;17.33;11.18;;;3.60;99.90;;;;;;5127041;27;20733;-75
2020/12/01 17:10:11;;;;;;;25.63;15.05;;;4.10;99.90;;;;;;5128326;27;20031;-75
2020/12/01 17:13:25;;;;;;;17.77;13.25;;;3.70;99.90;;;;;;5130560;27;20023;-74
2020/12/01 17:16:12;;;;;;;15.18;9.77;;;3.60;99.90;;;;;;5119724;27;20122;-75
2020/12/01 17:18:38;;;;;;;16.42;10.07;;;3.60;99.90;;;;;;5146669;27;20030;-75
2020/12/01 17:21:04;;;;;;;16.55;10.93;;;3.70;99.90;;;;;;5132005;27;20114;-75
2020/12/01 17:23:30;;;;;;;13.43;9.52;;;3.60;99.90;;;;;;5131836;27;20110;-75
2020/12/01 17:25:59;;;;;;;18.67;12.15;;;3.70;99.90;;;;;;5131009;27;20032;-75
2020/12/01 17:28:29;;;;;;;15.38;8.50;;;3.50;99.90;;;;;;5131573;27;20088;-75
2020/12/01 17:31:10;;;;;;;11.90;7.82;;;6.00;99.90;;;;;;5131650;27;20038;-75
2020/12/01 17:34:26;;;;;;;11.20;7.75;;;3.40;99.90;;;;;;5132109;28;20042;-75
2020/12/01 17:37:00;;;;;;;11.93;8.50;;;3.40;99.90;;;;;;5104563;27;20079;-75
2020/12/01 17:39:36;;;;;;;13.70;8.68;;;3.30;99.90;;;;;;5131561;28;20374;-75
2020/12/01 17:42:13;;;;;;;11.77;8.23;;;3.50;99.90;;;;;;5131693;28;20031;-75
2020/12/01 17:44:59;;;;;;;17.35;9.30;;;3.50;99.90;;;;;;5131572;28;20019;-75
2020/12/01 17:47:46;;;;;;;13.55;8.35;;;3.00;99.90;;;;;;5131052;28;20031;-75
2020/12/01 17:50:20;;;;;;;10.90;7.35;;;3.40;99.90;;;;;;5131337;27;20015;-75
2020/12/01 17:52:57;;;;;;;12.70;7.28;;;3.80;99.90;;;;;;5132995;28;20029;-76
2020/12/01 17:55:22;;;;;;;13.75;8.35;;;3.60;99.90;;;;;;5128007;28;20495;-76
2020/12/01 17:57:48;;;;;;;14.57;8.40;;;3.70;99.90;;;;;;5135546;27;20102;-76
2020/12/01 18:00:14;;;;;;;11.65;8.00;;;3.60;99.90;;;;;;5145489;27;20023;-76
2020/12/01 18:02:40;;;;;;;12.85;9.10;;;3.50;99.90;;;;;;5141996;27;20450;-76
2020/12/01 18:05:11;;;;;;;23.60;12.23;;;3.50;99.90;;;;;;5132907;27;20402;-76
2020/12/01 18:07:37;;;;;;;14.00;9.13;;;3.60;99.90;;;;;;5131186;27;20019;-75
2020/12/01 18:10:04;;;;;;;14.20;8.95;;;3.60;99.90;;;;;;5142069;27;20076;-75
2020/12/01 18:12:52;;;;;;;11.57;8.32;;;3.60;99.90;;;;;;5135461;27;20027;-75
2020/12/01 18:15:31;;;;;;;15.10;8.55;;;3.60;99.90;;;;;;5137071;27;20020;-76
2020/12/01 18:18:11;;;;;;;12.88;9.07;;;3.60;99.90;;;;;;5134453;27;20027;-75
2020/12/01 18:21:01;;;;;;;13.32;8.40;;;3.80;99.90;;;;;;5134947;27;20033;-75
2020/12/01 18:23:30;;;;;;;12.82;8.25;;;3.60;99.90;;;;;;5135031;27;20767;-76
2020/12/01 18:26:03;;;;;;;11.70;8.68;;;3.50;99.90;;;;;;5135041;27;20034;-75
2020/12/01 18:28:29;;;;;;;;;;;3.50;99.90;;;;;;5135181;27;20047;-75
2020/12/01 18:30:57;;;;;;;14.85;9.63;;;3.50;99.90;;;;;;5134776;27;20395;-76
2020/12/01 18:33:46;;;;;;;15.20;10.20;;;3.60;99.90;;;;;;5134681;27;20426;-75
2020/12/01 18:36:13;;;;;;;16.38;11.57;;;3.50;99.90;;;;;;5133777;27;20027;-75
2020/12/01 18:38:40;;;;;;;14.90;10.02;;;3.70;99.90;;;;;;5133429;27;20057;-75
2020/12/01 18:41:15;;;;;;;15.23;9.98;;;3.60;99.90;;;;;;5134565;27;20019;-75
2020/12/01 18:44:06;;;;;;;14.43;10.55;;;3.70;99.90;;;;;;5134481;27;20051;-75
2020/12/01 18:46:32;;;;;;;21.23;11.63;;;3.70;99.90;;;;;;5136629;27;20046;-75
2020/12/01 18:48:58;;;;;;;18.92;11.32;;;3.80;99.90;;;;;;5125023;27;20514;-75
2020/12/01 18:51:24;;;;;;;21.25;13.50;;;3.80;99.90;;;;;;5122427;27;20107;-75
2020/12/01 18:53:50;;;;;;;21.02;11.45;;;5.60;99.90;;;;;;5124194;27;20506;-75
2020/12/01 18:56:16;;;;;;;16.02;10.73;;;3.80;99.90;;;;;;5122677;27;20019;-75
2020/12/01 18:58:42;;;;;;;18.13;11.93;;;3.70;99.90;;;;;;5124978;27;20543;-75
2020/12/01 19:01:14;;;;;;;16.75;11.43;;;3.70;99.90;;;;;;5125187;27;20102;-75
2020/12/01 19:03:41;;;;;;;15.82;10.93;;;3.70;99.90;;;;;;5123193;27;20022;-75
2020/12/01 19:06:09;;;;;;;17.02;10.88;;;3.70;99.90;;;;;;5123147;27;20027;-75
2020/12/01 19:08:35;;;;;;;20.05;12.02;;;3.70;99.90;;;;;;5121205;27;20050;-75
